Meath Environmental Platform

Observations for Trim Market St

Time AQI Temp °C Hum % Pres Pa CO μg/m³ H₂S μg/m³ NO μg/m³ NO₂ μg/m³ O₃ μg/m³ SO₂ μg/m³ PM1 μg/m³ PM2.5 μg/m³ PM10 μg/m³
Saturday 15 August 2026
04:22 2 17 68 56,601 0.08 0 1.58 3.66 58.68 0 0 1.18 2.43
04:21 2 17 68 56,611 0.08 0 1.55 5.78 65.1 0 0 1.18 2.43
04:19 2 17 68 56,637 0.08 0 1.63 4.22 58.19 0 0 1.18 2.43
04:18 2 17 68 56,647 0.08 0 1.56 3.78 59.45 0 0 1.18 2.43
04:17 2 17 68 56,654 0.07 0 1.63 5.3 60.5 0 0 1.18 2.43
04:16 2 17.1 68 56,665 0.08 0 1.62 4.17 59.54 0 0 1.18 2.43
04:13 2 17.1 68 56,667 0.07 0 1.64 4.17 61.41 0 0 1.18 2.43
04:11 2 17.1 68 56,658 0.07 0 1.5 4.35 57.85 0 0 1.18 2.43
04:08 2 17.1 68 56,630 0.07 0 1.49 3.78 58.91 0 0 1.18 2.43
04:06 2 17.1 68 56,612 0.07 0 1.49 4.64 61.55 0 0 1.18 2.44
04:03 2 17.1 68 56,579 0.07 0 1.65 3.66 57.87 0 0 1.18 2.44
03:56 2 17.1 69 56,490 0.06 0 1.63 4.81 56.93 0 0 1.17 2.45
03:55 2 17.1 69 56,485 0.06 0 1.79 4.47 57.49 0 0 1.17 2.45
03:54 2 17.2 69 56,481 0.05 0 1.63 4.23 56.84 0 0 1.17 2.45
03:53 2 17.1 69 56,479 0.07 0 1.72 4.47 57.04 0 0 1.17 2.45
03:52 2 17.1 69 56,478 0.07 0 1.83 4.41 59.85 0 0 1.17 2.45
03:51 2 17.1 69 56,480 0.07 0 2.28 4.58 56.99 0 0 1.17 2.45
03:50 2 17.1 68 56,479 0.08 0 1.87 4.75 56.88 0 0 1.66 3.08
03:49 2 17.2 69 56,480 0.05 0 1.84 4.17 57.17 0 0 1.17 2.45
03:48 2 17.2 69 56,479 0.06 0 1.69 4.82 57.13 0 0 1.17 2.45